Ochopee, Florida
Current Conditions -  °F | °C
As of 11:53 PM on Wednesday 22 Oct 2014 (Local Time) from KAPF Reporting Station
Clear Clear  
Wind Chill: 76°   Ceiling: Unl
Heat Index: 76°   Visibility: 10mi
Dew Point: 72°   Wind: 3mph
Humidity: 87%   Direction: 110°ESE
Pressure: 29.93"   Gusts: NA
Location:  25.9°N, 81.3°W
Report Text: KAPF 230353Z AUTO 11003KT 10SM CLR 24/22 A2993 RMK AO2 SLP134 T02440222
Loading
Personal Weather Stations






























Interactive Weather Map
Tropical Storm Tracking
New forecast layout! Learn more

10-Day Weather Forecast

Advertisements
Track Severe Weather on mobile